createdAt,value
2023-02-14T00:01:35.126Z,60.46
2023-02-14T00:04:44.294Z,60.50
2023-02-14T00:07:47.205Z,60.41
2023-02-14T00:10:50.087Z,59.91
2023-02-14T00:14:11.634Z,60.54
2023-02-14T00:17:14.513Z,60.45
2023-02-14T00:20:17.512Z,60.37
2023-02-14T00:23:20.443Z,60.15
2023-02-14T00:26:23.287Z,60.19
2023-02-14T00:29:29.865Z,60.55
2023-02-14T00:32:32.814Z,60.29
2023-02-14T00:35:38.729Z,60.55
2023-02-14T00:38:41.998Z,61.04
2023-02-14T00:41:45.936Z,61.03
2023-02-14T00:44:52.858Z,60.97
2023-02-14T00:47:56.246Z,60.98
2023-02-14T00:50:59.407Z,61.33
2023-02-14T00:54:03.393Z,60.83
2023-02-14T00:57:08.775Z,60.97
2023-02-14T01:00:13.679Z,61.41
2023-02-14T01:03:16.638Z,61.16
2023-02-14T01:06:19.604Z,61.22
2023-02-14T01:09:22.699Z,61.61
2023-02-14T01:12:25.834Z,61.25
2023-02-14T01:15:32.509Z,61.48
2023-02-14T01:18:36.552Z,61.63
2023-02-14T01:21:39.696Z,61.82
2023-02-14T01:24:42.550Z,61.68
2023-02-14T01:27:47.756Z,61.46
2023-02-14T01:30:51.981Z,61.58
2023-02-14T01:33:56.408Z,61.61
2023-02-14T01:36:59.351Z,61.80
2023-02-14T01:40:02.813Z,61.51
2023-02-14T01:43:16.031Z,61.94
2023-02-14T01:46:19.028Z,61.65
2023-02-14T01:49:29.869Z,62.01
2023-02-14T01:52:37.715Z,62.06
2023-02-14T01:55:45.625Z,61.75
2023-02-14T01:58:55.029Z,62.45
2023-02-14T02:01:58.649Z,61.86
2023-02-14T02:05:01.453Z,61.41
2023-02-14T02:08:04.485Z,62.72
2023-02-14T02:11:07.635Z,62.32
2023-02-14T02:14:17.318Z,62.29
2023-02-14T02:17:38.343Z,62.73
2023-02-14T02:21:18.897Z,62.83
2023-02-14T02:24:44.881Z,62.61
2023-02-14T02:28:23.737Z,62.71
2023-02-14T02:31:26.684Z,62.81
2023-02-14T02:34:54.961Z,62.71
2023-02-14T02:38:19.587Z,63.25
2023-02-14T02:41:36.699Z,63.00
2023-02-14T02:44:51.177Z,63.35
2023-02-14T02:48:10.163Z,63.88
2023-02-14T02:51:40.109Z,64.21
2023-02-14T02:54:50.248Z,64.10
2023-02-14T02:57:56.279Z,64.56
2023-02-14T03:01:03.884Z,65.25
2023-02-14T03:04:28.856Z,64.93
2023-02-14T03:07:36.570Z,64.62
2023-02-14T03:10:45.087Z,65.61
2023-02-14T03:14:04.500Z,64.92
2023-02-14T03:17:24.972Z,65.42
2023-02-14T03:20:40.873Z,64.42
2023-02-14T03:24:05.296Z,65.43
2023-02-14T03:27:23.820Z,65.09
2023-02-14T03:30:36.697Z,65.59
2023-02-14T03:34:01.112Z,65.08
2023-02-14T03:37:21.547Z,65.22
2023-02-14T03:40:33.938Z,64.88
2023-02-14T03:43:46.426Z,64.72
2023-02-14T03:46:59.907Z,64.66
2023-02-14T03:50:12.648Z,64.41
2023-02-14T03:53:21.530Z,64.14
2023-02-14T03:56:38.597Z,64.04
2023-02-14T03:59:42.266Z,63.74
2023-02-14T04:02:50.146Z,64.16
2023-02-14T04:05:53.315Z,64.09
2023-02-14T04:08:56.585Z,64.38
2023-02-14T04:11:59.520Z,63.62
2023-02-14T04:15:02.527Z,63.87
2023-02-14T04:18:25.276Z,63.79
2023-02-14T04:21:28.368Z,63.75
2023-02-14T04:24:31.261Z,63.63
2023-02-14T04:27:34.095Z,63.96
2023-02-14T04:30:37.544Z,63.86
2023-02-14T04:33:40.664Z,63.82
2023-02-14T04:36:43.516Z,63.93
2023-02-14T04:39:46.733Z,63.94
2023-02-14T04:42:49.630Z,64.23
2023-02-14T04:45:52.431Z,64.31
2023-02-14T04:48:55.289Z,63.81
2023-02-14T04:51:58.172Z,64.14
2023-02-14T04:55:01.215Z,64.20
2023-02-14T04:58:04.074Z,63.94
2023-02-14T05:01:07.044Z,63.55
2023-02-14T05:04:10.600Z,64.33
2023-02-14T05:07:13.493Z,63.90
2023-02-14T05:10:16.463Z,65.00
2023-02-14T05:13:19.317Z,64.49
2023-02-14T05:16:22.922Z,65.11
2023-02-14T05:19:28.259Z,64.47
2023-02-14T05:22:31.813Z,64.65
2023-02-14T05:25:34.697Z,64.65
2023-02-14T05:28:37.591Z,64.92
2023-02-14T05:31:40.632Z,64.96
2023-02-14T05:34:43.614Z,64.73
2023-02-14T05:37:46.474Z,64.47
2023-02-14T05:40:49.258Z,64.63
2023-02-14T05:43:52.249Z,64.83
2023-02-14T05:46:55.275Z,64.56
2023-02-14T05:49:58.248Z,64.78
2023-02-14T05:53:01.333Z,64.76
2023-02-14T05:56:04.952Z,64.51
2023-02-14T05:59:07.870Z,64.72
2023-02-14T06:02:11.122Z,63.76
2023-02-14T06:05:15.332Z,64.23
2023-02-14T06:08:18.248Z,64.52
2023-02-14T06:11:21.106Z,63.76
2023-02-14T06:14:24.075Z,63.80
2023-02-14T06:17:31.059Z,64.15
2023-02-14T06:20:34.270Z,63.58
2023-02-14T06:23:39.649Z,63.79
2023-02-14T06:26:42.595Z,64.01
2023-02-14T06:29:45.396Z,64.33
2023-02-14T06:32:48.441Z,64.35
2023-02-14T06:35:54.147Z,64.33
2023-02-14T06:38:59.456Z,64.36
2023-02-14T06:42:02.332Z,64.66
2023-02-14T06:45:06.605Z,64.41
2023-02-14T06:53:41.842Z,64.36
2023-02-14T06:56:46.186Z,63.85
2023-02-14T06:59:50.420Z,63.88
2023-02-14T07:02:58.514Z,64.39
2023-02-14T07:06:03.586Z,63.05
2023-02-14T07:09:07.787Z,63.41
2023-02-14T07:12:12.052Z,63.80
2023-02-14T07:15:15.314Z,63.40
2023-02-14T07:18:20.407Z,64.43
2023-02-14T07:21:25.025Z,63.52
2023-02-14T07:24:28.839Z,63.54
2023-02-14T07:27:32.355Z,62.88
2023-02-14T07:30:36.937Z,62.41
2023-02-14T07:33:40.929Z,62.92
2023-02-14T07:36:44.376Z,62.79
2023-02-14T07:39:47.385Z,62.71
2023-02-14T07:42:56.159Z,63.22
2023-02-14T07:46:01.454Z,63.16
2023-02-14T07:49:05.696Z,63.90
2023-02-14T07:52:09.576Z,62.24
2023-02-14T07:55:32.011Z,63.13
2023-02-14T07:58:42.788Z,62.83
2023-02-14T08:01:45.910Z,62.78
2023-02-14T08:04:50.291Z,63.17
2023-02-14T08:07:53.482Z,63.07
2023-02-14T08:10:58.848Z,62.62
2023-02-14T08:14:05.416Z,62.67
2023-02-14T08:17:10.246Z,62.83
2023-02-14T08:20:14.514Z,63.12
2023-02-14T08:23:19.964Z,63.06
2023-02-14T08:26:23.814Z,62.63
2023-02-14T08:29:29.311Z,62.54
2023-02-14T08:32:36.099Z,62.24
2023-02-14T08:35:46.463Z,63.06
2023-02-14T08:38:50.049Z,62.52
2023-02-14T08:41:53.883Z,63.07
2023-02-14T08:44:56.952Z,62.92
2023-02-14T08:48:05.706Z,62.86
2023-02-14T08:51:14.565Z,62.84
2023-02-14T08:54:18.961Z,62.40
2023-02-14T08:57:22.071Z,62.09
2023-02-14T09:00:25.442Z,61.94
2023-02-14T09:03:29.598Z,61.59
2023-02-14T09:06:33.268Z,62.06
2023-02-14T09:09:36.214Z,61.72
2023-02-14T09:12:42.507Z,62.17
2023-02-14T09:15:45.607Z,61.75
2023-02-14T09:18:49.258Z,61.54
2023-02-14T09:21:52.383Z,61.68
2023-02-14T09:24:55.488Z,60.54
2023-02-14T09:27:59.319Z,61.36
2023-02-14T09:31:17.299Z,61.00
2023-02-14T09:34:20.868Z,61.28
2023-02-14T09:37:24.950Z,60.41
2023-02-14T09:40:29.012Z,59.76
2023-02-14T09:43:55.805Z,60.41
2023-02-14T09:47:05.654Z,59.96
2023-02-14T09:50:31.945Z,59.08
2023-02-14T09:53:40.946Z,58.59
2023-02-14T09:56:57.824Z,58.70
2023-02-14T10:01:00.161Z,58.77
2023-02-14T10:04:21.253Z,58.52
2023-02-14T10:07:29.880Z,57.78
2023-02-14T10:10:47.899Z,58.09
2023-02-14T10:14:04.145Z,58.01
2023-02-14T10:17:25.544Z,57.55
2023-02-14T10:20:43.715Z,58.07
2023-02-14T10:23:53.771Z,57.42
2023-02-14T10:27:32.157Z,57.83
2023-02-14T10:31:27.430Z,58.42
2023-02-14T10:34:36.718Z,58.26
2023-02-14T10:37:54.499Z,58.51
2023-02-14T10:40:57.638Z,58.25
2023-02-14T10:44:03.732Z,58.49
2023-02-14T10:47:07.970Z,59.48
2023-02-14T10:50:32.543Z,59.64
2023-02-14T10:53:52.558Z,58.88
2023-02-14T10:57:22.715Z,59.17
2023-02-14T11:00:31.708Z,58.82
2023-02-14T11:03:39.483Z,59.33
2023-02-14T11:06:43.456Z,59.47
2023-02-14T11:09:48.282Z,60.01
2023-02-14T11:12:51.643Z,60.51
2023-02-14T11:15:59.807Z,59.89
2023-02-14T11:19:15.255Z,60.42
2023-02-14T11:22:30.120Z,60.72
2023-02-14T11:25:36.650Z,60.34
2023-02-14T11:28:48.957Z,60.28
2023-02-14T11:31:52.509Z,59.46
2023-02-14T11:35:01.521Z,59.41
2023-02-14T11:38:28.634Z,59.63
2023-02-14T11:41:48.472Z,59.53
2023-02-14T11:44:58.846Z,59.31
2023-02-14T11:48:37.320Z,59.17
2023-02-14T11:51:45.648Z,59.33
2023-02-14T11:54:49.623Z,59.04
2023-02-14T11:57:53.259Z,59.18
2023-02-14T12:00:56.344Z,59.08
2023-02-14T12:04:04.128Z,58.61
2023-02-14T12:07:23.181Z,58.79
2023-02-14T12:10:35.351Z,58.68
2023-02-14T12:13:38.450Z,58.35
2023-02-14T12:17:01.030Z,58.93
2023-02-14T12:20:17.235Z,58.83
2023-02-14T12:23:51.336Z,59.12
2023-02-14T12:27:04.982Z,58.77
2023-02-14T12:30:23.712Z,58.60
2023-02-14T12:33:26.796Z,57.76
2023-02-14T12:36:55.433Z,58.12
2023-02-14T12:40:25.758Z,58.07
2023-02-14T12:43:50.925Z,57.59
2023-02-14T12:47:12.926Z,57.24
2023-02-14T12:50:33.894Z,58.03
2023-02-14T12:54:03.101Z,56.49
2023-02-14T12:57:15.228Z,57.04
2023-02-14T13:00:40.666Z,56.77
2023-02-14T13:04:02.874Z,56.81
2023-02-14T13:07:09.567Z,56.79
2023-02-14T13:10:23.574Z,57.44
2023-02-14T13:13:52.786Z,57.20
2023-02-14T13:17:17.974Z,57.47
2023-02-14T13:20:47.845Z,56.93
2023-02-14T13:24:02.264Z,56.42
2023-02-14T13:27:08.970Z,57.77
2023-02-14T13:30:26.044Z,57.70
2023-02-14T13:33:40.248Z,57.13
2023-02-14T13:36:45.580Z,56.31
2023-02-14T13:40:01.832Z,56.86
2023-02-14T13:43:05.121Z,57.18
2023-02-14T13:46:08.226Z,56.65
2023-02-14T13:49:18.280Z,57.50
2023-02-14T13:52:40.014Z,56.89
2023-02-14T13:55:48.719Z,56.90
2023-02-14T13:59:00.597Z,57.69
2023-02-14T14:02:31.062Z,57.60
2023-02-14T14:05:35.472Z,57.67
2023-02-14T14:12:34.505Z,58.37
2023-02-14T14:15:58.659Z,57.79
2023-02-14T14:19:30.795Z,57.91
2023-02-14T14:22:48.227Z,58.30
2023-02-14T14:25:58.003Z,58.43
2023-02-14T14:29:01.337Z,58.13
2023-02-14T14:32:26.432Z,58.05
2023-02-14T14:35:29.349Z,58.40
2023-02-14T14:38:33.937Z,58.32
2023-02-14T14:41:40.330Z,57.98
2023-02-14T14:44:47.157Z,58.43
2023-02-14T14:47:54.466Z,58.76
2023-02-14T14:50:59.203Z,58.51
2023-02-14T14:54:07.280Z,58.69
2023-02-14T14:57:18.215Z,58.83
2023-02-14T15:00:24.346Z,59.10
2023-02-14T15:03:29.430Z,57.90
2023-02-14T15:06:32.444Z,58.10
2023-02-14T15:09:35.679Z,58.32
2023-02-14T15:12:57.445Z,58.59
2023-02-14T15:16:04.362Z,58.53
2023-02-14T15:19:22.786Z,58.55
2023-02-14T15:22:31.777Z,58.91
2023-02-14T15:25:37.843Z,59.63
2023-02-14T15:28:41.816Z,59.67
2023-02-14T15:31:48.773Z,59.43
2023-02-14T15:34:52.712Z,59.39
2023-02-14T15:38:00.808Z,60.23
2023-02-14T15:41:05.348Z,59.88
2023-02-14T15:44:19.003Z,59.31
2023-02-14T15:47:22.232Z,59.84
2023-02-14T15:50:34.276Z,59.49
2023-02-14T15:53:53.989Z,59.49
2023-02-14T15:56:58.904Z,59.28
2023-02-14T16:00:12.717Z,59.37
2023-02-14T16:03:22.709Z,59.76
2023-02-14T16:06:44.710Z,59.83
2023-02-14T16:09:49.158Z,59.39
2023-02-14T16:13:01.011Z,59.34
2023-02-14T16:16:14.537Z,60.28
2023-02-14T16:19:32.534Z,59.91
2023-02-14T16:22:35.501Z,60.11
2023-02-14T16:25:38.550Z,60.13
2023-02-14T16:28:43.288Z,60.46
2023-02-14T16:32:15.205Z,61.10
2023-02-14T16:35:21.493Z,61.93
2023-02-14T16:38:27.145Z,62.00
2023-02-14T16:41:34.565Z,63.01
2023-02-14T16:44:40.054Z,62.31
2023-02-14T16:47:43.502Z,62.23
2023-02-14T16:50:47.625Z,62.49
2023-02-14T16:53:51.795Z,62.98
2023-02-14T16:57:02.283Z,63.28
2023-02-14T17:00:06.791Z,63.00
2023-02-14T17:03:11.735Z,63.65
2023-02-14T17:06:19.076Z,63.75
2023-02-14T17:09:27.963Z,63.91
2023-02-14T17:12:38.099Z,64.94
2023-02-14T17:15:41.408Z,65.23
2023-02-14T17:18:49.025Z,65.29
2023-02-14T17:21:59.354Z,65.30
2023-02-14T17:25:02.992Z,65.70
2023-02-14T17:28:06.105Z,66.60
2023-02-14T17:31:09.430Z,66.70
2023-02-14T17:34:12.855Z,67.24
2023-02-14T17:37:19.013Z,67.20
2023-02-14T17:40:22.211Z,67.33
2023-02-14T17:43:27.584Z,68.00
2023-02-14T17:46:32.066Z,68.97
2023-02-14T17:49:35.289Z,68.35
2023-02-14T17:52:40.471Z,68.35
2023-02-14T17:55:44.226Z,68.50
2023-02-14T17:58:49.343Z,68.86
2023-02-14T18:01:52.710Z,69.45
2023-02-14T18:04:58.538Z,69.46
2023-02-14T18:08:02.357Z,70.01
2023-02-14T18:11:14.282Z,69.44
2023-02-14T18:14:17.288Z,70.04
2023-02-14T18:17:21.829Z,70.22
2023-02-14T18:20:26.143Z,70.63
2023-02-14T18:23:29.171Z,70.15
2023-02-14T18:26:33.018Z,70.59
2023-02-14T18:29:36.512Z,70.82
2023-02-14T18:32:43.899Z,70.90
2023-02-14T18:35:48.740Z,70.72
2023-02-14T18:38:58.728Z,70.46
2023-02-14T18:42:06.198Z,71.56
2023-02-14T18:45:09.952Z,71.41
2023-02-14T18:48:18.850Z,71.50
2023-02-14T18:51:23.670Z,71.74
2023-02-14T18:54:26.950Z,70.99
2023-02-14T18:57:30.396Z,71.84
2023-02-14T19:00:34.008Z,72.09
2023-02-14T19:03:38.232Z,72.40
2023-02-14T19:06:43.733Z,72.22
2023-02-14T19:09:47.220Z,72.05
2023-02-14T19:12:53.416Z,72.24
2023-02-14T19:15:56.854Z,72.42
2023-02-14T19:19:02.860Z,72.76
2023-02-14T19:22:07.413Z,73.46
2023-02-14T19:25:12.049Z,72.81
2023-02-14T19:28:16.006Z,72.32
2023-02-14T19:31:20.318Z,72.22
2023-02-14T19:34:29.275Z,72.54
2023-02-14T19:37:32.824Z,72.32
2023-02-14T19:40:37.181Z,72.11
2023-02-14T19:43:43.329Z,72.25
2023-02-14T19:46:50.072Z,72.94
2023-02-14T19:49:55.467Z,72.91
2023-02-14T19:52:59.741Z,72.96
2023-02-14T19:56:02.964Z,73.13
2023-02-14T19:59:09.638Z,73.59
2023-02-14T20:02:19.018Z,73.27
2023-02-14T20:05:23.599Z,72.98
2023-02-14T20:08:26.729Z,72.41
2023-02-14T20:11:44.106Z,71.54
2023-02-14T20:14:51.583Z,72.52
2023-02-14T20:17:55.709Z,72.22
2023-02-14T20:21:03.084Z,71.96
2023-02-14T20:24:06.907Z,71.20
2023-02-14T20:27:10.078Z,71.81
2023-02-14T20:30:20.830Z,71.62
2023-02-14T20:33:30.267Z,71.45
2023-02-14T20:36:33.593Z,71.74
2023-02-14T20:39:38.438Z,71.76
2023-02-14T20:42:41.708Z,71.24
2023-02-14T20:45:45.974Z,71.15
2023-02-14T20:48:52.130Z,71.47
2023-02-14T20:51:56.199Z,71.41
2023-02-14T20:55:00.401Z,71.45
2023-02-14T20:58:11.286Z,71.41
2023-02-14T21:01:25.400Z,71.25
2023-02-14T21:04:29.597Z,71.14
2023-02-14T21:07:36.025Z,71.62
2023-02-14T21:10:40.370Z,71.27
2023-02-14T21:13:45.433Z,71.44
2023-02-14T21:16:48.639Z,70.87
2023-02-14T21:19:58.035Z,70.95
2023-02-14T21:23:03.613Z,70.95
2023-02-14T21:26:06.688Z,71.43
2023-02-14T21:29:10.655Z,71.98
2023-02-14T21:32:14.188Z,72.96
2023-02-14T21:35:17.509Z,72.83
2023-02-14T21:38:20.698Z,72.35
2023-02-14T21:41:27.617Z,71.81
2023-02-14T21:44:49.668Z,71.94
2023-02-14T21:48:11.800Z,73.35
2023-02-14T21:51:15.525Z,73.27
2023-02-14T21:54:18.972Z,73.17
2023-02-14T21:57:22.287Z,73.12
2023-02-14T22:00:26.614Z,73.12
2023-02-14T22:03:29.611Z,73.10
2023-02-14T22:06:41.057Z,72.55
2023-02-14T22:09:44.340Z,73.18
2023-02-14T22:12:47.668Z,73.83
2023-02-14T22:15:51.155Z,73.87
2023-02-14T22:18:57.806Z,73.45
2023-02-14T22:22:01.363Z,73.67
2023-02-14T22:25:04.521Z,73.59
2023-02-14T22:28:07.501Z,73.77
2023-02-14T22:31:16.045Z,73.76
2023-02-14T22:34:20.395Z,73.63
2023-02-14T22:37:23.426Z,73.69
2023-02-14T22:40:26.332Z,73.85
2023-02-14T22:43:29.250Z,74.45
2023-02-14T22:46:33.951Z,74.86
2023-02-14T22:49:36.969Z,75.05
2023-02-14T22:52:40.125Z,75.27
2023-02-14T22:55:43.186Z,74.83
2023-02-14T22:58:46.722Z,74.56
2023-02-14T23:01:51.835Z,74.79
2023-02-14T23:04:57.864Z,74.76
2023-02-14T23:08:01.423Z,73.93
2023-02-14T23:11:21.784Z,75.71
2023-02-14T23:14:44.232Z,75.28
2023-02-14T23:18:05.719Z,75.23
2023-02-14T23:21:39.988Z,74.80
2023-02-14T23:24:43.198Z,74.94
2023-02-14T23:27:49.527Z,75.47
2023-02-14T23:30:52.895Z,74.72
2023-02-14T23:33:56.018Z,75.21
2023-02-14T23:36:59.974Z,75.70
2023-02-14T23:40:04.115Z,75.59
2023-02-14T23:43:07.114Z,76.26
2023-02-14T23:46:10.323Z,76.11
2023-02-14T23:49:13.966Z,76.32
2023-02-14T23:52:16.864Z,78.43
2023-02-14T23:55:19.641Z,76.66
2023-02-14T23:58:22.634Z,76.36
